PRIVATE WETTERSTATION BILLIGHEIM-ALLFELD                       ZURCK
Wetterdaten: Samstag, 08.03.2014
Datum Zeit Temp. A. Temp. A. min Temp. A. max Feuchte A. Luftdruck Regen Wind Richtung Richtung Sonnenschein ET Solar Taupunkt Windchill Windben Empfang
08.03.2014 00:00 4,8 C 4,8 C 4,9 C 84 % 1027,9 hPa 0,0 l/m 0,0 km/h (0 Bft) N 0 0 min 0,000 mm 0 W/m 2,3 C 4,8 C 0,0 km/h (0 Bft) 100 %
08.03.2014 00:10 4,8 C 4,8 C 4,8 C 83 % 1028,0 hPa 0,0 l/m 0,0 km/h (0 Bft) N 0 0 min 0,000 mm 0 W/m 2,2 C 4,8 C 0,0 km/h (0 Bft) 100 %
08.03.2014 00:20 4,9 C 4,8 C 4,9 C 83 % 1028,0 hPa 0,0 l/m 0,0 km/h (0 Bft) N 0 0 min 0,000 mm 0 W/m 2,3 C 4,9 C 0,0 km/h (0 Bft) 100 %
08.03.2014 00:30 4,8 C 4,8 C 4,9 C 82 % 1028,0 hPa 0,0 l/m 0,0 km/h (0 Bft) N 0 0 min 0,000 mm 0 W/m 2,0 C 4,8 C 0,0 km/h (0 Bft) 100 %
08.03.2014 00:40 4,5 C 4,5 C 4,8 C 83 % 1028,1 hPa 0,0 l/m 0,0 km/h (0 Bft) N 0 0 min 0,000 mm 0 W/m 1,9 C 4,5 C 0,0 km/h (0 Bft) 100 %
08.03.2014 00:50 4,2 C 4,2 C 4,5 C 84 % 1028,1 hPa 0,0 l/m 0,0 km/h (0 Bft) N 0 0 min 0,000 mm 0 W/m 1,7 C 4,2 C 0,0 km/h (0 Bft) 100 %
08.03.2014 01:00 4,0 C 4,0 C 4,2 C 84 % 1028,1 hPa 0,0 l/m 0,0 km/h (0 Bft) N-NO 22 0 min 0,000 mm 0 W/m 1,5 C 4,0 C 1,6 km/h (1 Bft) 100 %
08.03.2014 01:10 3,8 C 3,8 C 4,0 C 85 % 1028,3 hPa 0,0 l/m 0,0 km/h (0 Bft) N-NO 22 0 min 0,000 mm 0 W/m 1,5 C 3,8 C 1,6 km/h (1 Bft) 100 %
08.03.2014 01:20 3,6 C 3,6 C 3,8 C 85 % 1028,2 hPa 0,0 l/m 0,0 km/h (0 Bft) N 0 0 min 0,000 mm 0 W/m 1,3 C 3,6 C 0,0 km/h (0 Bft) 100 %
08.03.2014 01:30 3,4 C 3,4 C 3,6 C 85 % 1028,4 hPa 0,0 l/m 0,0 km/h (0 Bft) N-NO 22 0 min 0,000 mm 0 W/m 1,1 C 3,4 C 1,6 km/h (1 Bft) 100 %
08.03.2014 01:40 3,2 C 3,2 C 3,4 C 85 % 1028,6 hPa 0,0 l/m 0,0 km/h (0 Bft) N-NO 22 0 min 0,000 mm 0 W/m 0,9 C 3,2 C 1,6 km/h (1 Bft) 100 %
08.03.2014 01:50 3,0 C 2,9 C 3,2 C 86 % 1028,9 hPa 0,0 l/m 0,0 km/h (0 Bft) N-NO 22 0 min 0,000 mm 0 W/m 0,9 C 3,0 C 1,6 km/h (1 Bft) 100 %
08.03.2014 02:00 2,9 C 2,9 C 3,0 C 86 % 1028,9 hPa 0,0 l/m 0,0 km/h (0 Bft) N-NO 22 0 min 0,000 mm 0 W/m 0,8 C 2,9 C 1,6 km/h (1 Bft) 100 %
08.03.2014 02:10 2,8 C 2,8 C 2,9 C 87 % 1029,0 hPa 0,0 l/m 0,0 km/h (0 Bft) N-NO 22 0 min 0,000 mm 0 W/m 0,9 C 2,8 C 1,6 km/h (1 Bft) 100 %
08.03.2014 02:20 2,8 C 2,8 C 2,8 C 87 % 1028,9 hPa 0,0 l/m 0,0 km/h (0 Bft) N 0 0 min 0,000 mm 0 W/m 0,9 C 2,8 C 0,0 km/h (0 Bft) 100 %
08.03.2014 02:30 2,7 C 2,7 C 2,8 C 87 % 1029,1 hPa 0,0 l/m 0,0 km/h (0 Bft) N 0 0 min 0,000 mm 0 W/m 0,8 C 2,7 C 0,0 km/h (0 Bft) 100 %
08.03.2014 02:40 2,6 C 2,6 C 2,7 C 87 % 1029,0 hPa 0,0 l/m 0,0 km/h (0 Bft) N-NO 22 0 min 0,000 mm 0 W/m 0,7 C 2,6 C 1,6 km/h (1 Bft) 100 %
08.03.2014 02:50 2,2 C 2,2 C 2,5 C 87 % 1029,0 hPa 0,0 l/m 0,0 km/h (0 Bft) N-NO 22 0 min 0,000 mm 0 W/m 0,3 C 2,2 C 3,2 km/h (1 Bft) 100 %
08.03.2014 03:00 1,9 C 1,9 C 2,2 C 87 % 1029,1 hPa 0,0 l/m 0,0 km/h (0 Bft) N-NO 22 0 min 0,000 mm 0 W/m -0,0 C 1,9 C 3,2 km/h (1 Bft) 100 %
08.03.2014 03:10 1,6 C 1,6 C 1,9 C 87 % 1029,2 hPa 0,0 l/m 0,0 km/h (0 Bft) N-NO 22 0 min 0,000 mm 0 W/m -0,3 C 1,6 C 1,6 km/h (1 Bft) 100 %
08.03.2014 03:20 1,4 C 1,3 C 1,6 C 87 % 1029,3 hPa 0,0 l/m 0,0 km/h (0 Bft) N-NO 22 0 min 0,000 mm 0 W/m -0,5 C 1,4 C 1,6 km/h (1 Bft) 100 %
08.03.2014 03:30 1,3 C 1,2 C 1,3 C 87 % 1029,2 hPa 0,0 l/m 0,0 km/h (0 Bft) N-NO 22 0 min 0,000 mm 0 W/m -0,6 C 1,3 C 3,2 km/h (1 Bft) 100 %
08.03.2014 03:40 1,1 C 1,1 C 1,3 C 87 % 1029,3 hPa 0,0 l/m 0,0 km/h (0 Bft) NO 45 0 min 0,000 mm 0 W/m -0,8 C 1,1 C 1,6 km/h (1 Bft) 100 %
08.03.2014 03:50 1,0 C 1,0 C 1,1 C 87 % 1029,3 hPa 0,0 l/m 0,0 km/h (0 Bft) N 0 0 min 0,000 mm 0 W/m -0,9 C 1,0 C 0,0 km/h (0 Bft) 99 %
08.03.2014 04:00 1,1 C 1,0 C 1,1 C 87 % 1029,4 hPa 0,0 l/m 0,0 km/h (0 Bft) N 0 0 min 0,000 mm 0 W/m -0,8 C 1,1 C 0,0 km/h (0 Bft) 100 %
08.03.2014 04:10 1,1 C 1,1 C 1,1 C 87 % 1029,6 hPa 0,0 l/m 0,0 km/h (0 Bft) N 0 0 min 0,000 mm 0 W/m -0,8 C 1,1 C 0,0 km/h (0 Bft) 100 %
08.03.2014 04:20 1,2 C 1,1 C 1,2 C 87 % 1029,6 hPa 0,0 l/m 0,0 km/h (0 Bft) N 0 0 min 0,000 mm 0 W/m -0,7 C 1,2 C 0,0 km/h (0 Bft) 100 %
08.03.2014 04:30 1,1 C 1,1 C 1,2 C 88 % 1029,8 hPa 0,0 l/m 0,0 km/h (0 Bft) NO 45 0 min 0,000 mm 0 W/m -0,7 C 1,1 C 1,6 km/h (1 Bft) 100 %
08.03.2014 04:40 0,6 C 0,6 C 1,1 C 88 % 1029,9 hPa 0,0 l/m 0,0 km/h (0 Bft) NO 45 0 min 0,000 mm 0 W/m -1,2 C 0,6 C 3,2 km/h (1 Bft) 100 %
08.03.2014 04:50 0,4 C 0,4 C 0,6 C 88 % 1030,2 hPa 0,0 l/m 0,0 km/h (0 Bft) NO 45 0 min 0,000 mm 0 W/m -1,3 C 0,4 C 1,6 km/h (1 Bft) 100 %
08.03.2014 05:00 0,2 C 0,2 C 0,4 C 87 % 1030,2 hPa 0,0 l/m 0,0 km/h (0 Bft) NO 45 0 min 0,000 mm 0 W/m -1,7 C 0,2 C 1,6 km/h (1 Bft) 100 %
08.03.2014 05:10 0,0 C 0,0 C 0,2 C 88 % 1030,4 hPa 0,0 l/m 0,0 km/h (0 Bft) N-NO 22 0 min 0,000 mm 0 W/m -1,7 C 0,0 C 3,2 km/h (1 Bft) 100 %
08.03.2014 05:20 -0,2 C -0,2 C -0,1 C 88 % 1030,4 hPa 0,0 l/m 0,0 km/h (0 Bft) N-NO 22 0 min 0,000 mm 0 W/m -1,9 C -0,2 C 1,6 km/h (1 Bft) 100 %
08.03.2014 05:30 -0,4 C -0,4 C -0,2 C 87 % 1030,5 hPa 0,0 l/m 0,0 km/h (0 Bft) N-NO 22 0 min 0,000 mm 0 W/m -2,3 C -0,4 C 1,6 km/h (1 Bft) 100 %
08.03.2014 05:40 -0,5 C -0,5 C -0,4 C 87 % 1030,7 hPa 0,0 l/m 0,0 km/h (0 Bft) N-NO 22 0 min 0,000 mm 0 W/m -2,4 C -0,5 C 1,6 km/h (1 Bft) 100 %
08.03.2014 05:50 -0,5 C -0,5 C -0,4 C 87 % 1030,9 hPa 0,0 l/m 0,0 km/h (0 Bft) N-NO 22 0 min 0,000 mm 0 W/m -2,4 C -0,5 C 1,6 km/h (1 Bft) 88 %
08.03.2014 06:00 -0,6 C -0,7 C -0,5 C 88 % 1031,0 hPa 0,0 l/m 0,0 km/h (0 Bft) N 0 0 min 0,000 mm 0 W/m -2,3 C -0,6 C 0,0 km/h (0 Bft) 98 %
08.03.2014 06:10 -0,6 C -0,7 C -0,6 C 88 % 1031,1 hPa 0,0 l/m 0,0 km/h (0 Bft) N-NO 22 0 min 0,000 mm 0 W/m -2,3 C -0,6 C 1,6 km/h (1 Bft) 97 %
08.03.2014 06:20 -0,7 C -0,7 C -0,6 C 87 % 1031,2 hPa 0,0 l/m 0,0 km/h (0 Bft) N 0 0 min 0,000 mm 0 W/m -2,6 C -0,7 C 0,0 km/h (0 Bft) 97 %
08.03.2014 06:30 -0,7 C -0,7 C -0,7 C 87 % 1031,2 hPa 0,0 l/m 0,0 km/h (0 Bft) N-NO 22 0 min 0,000 mm 0 W/m -2,6 C -0,7 C 1,6 km/h (1 Bft) 98 %
08.03.2014 06:40 -0,7 C -0,8 C -0,7 C 87 % 1031,4 hPa 0,0 l/m 0,0 km/h (0 Bft) N-NO 22 0 min 0,000 mm 0 W/m -2,6 C -0,7 C 1,6 km/h (1 Bft) 96 %
08.03.2014 06:50 -0,7 C -0,8 C -0,7 C 87 % 1031,6 hPa 0,0 l/m 0,0 km/h (0 Bft) N-NO 22 0 min 0,000 mm 0 W/m -2,6 C -0,7 C 1,6 km/h (1 Bft) 98 %
08.03.2014 07:00 -0,8 C -0,8 C -0,7 C 87 % 1031,8 hPa 0,0 l/m 0,0 km/h (0 Bft) N-NO 22 0 min 0,000 mm 7 W/m -2,7 C -0,8 C 3,2 km/h (1 Bft) 97 %
08.03.2014 07:10 -0,8 C -0,9 C -0,8 C 87 % 1032,0 hPa 0,0 l/m 0,0 km/h (0 Bft) N-NO 22 0 min 0,000 mm 14 W/m -2,7 C -0,8 C 3,2 km/h (1 Bft) 98 %
08.03.2014 07:20 -0,7 C -0,8 C -0,7 C 88 % 1032,0 hPa 0,0 l/m 0,0 km/h (0 Bft) N-NO 22 0 min 0,000 mm 21 W/m -2,4 C -0,7 C 3,2 km/h (1 Bft) 97 %
08.03.2014 07:30 -0,6 C -0,7 C -0,6 C 88 % 1032,0 hPa 0,0 l/m 0,0 km/h (0 Bft) N 0 0 min 0,000 mm 30 W/m -2,3 C -0,6 C 0,0 km/h (0 Bft) 97 %
08.03.2014 07:40 -0,7 C -0,7 C -0,6 C 88 % 1032,1 hPa 0,0 l/m 0,0 km/h (0 Bft) N-NO 22 0 min 0,000 mm 39 W/m -2,4 C -0,7 C 3,2 km/h (1 Bft) 98 %
08.03.2014 07:50 -0,8 C -0,8 C -0,7 C 87 % 1032,2 hPa 0,0 l/m 0,0 km/h (0 Bft) N 360 0 min 0,000 mm 46 W/m -2,7 C -0,8 C 3,2 km/h (1 Bft) 96 %
08.03.2014 08:00 -0,7 C -0,8 C -0,7 C 87 % 1032,4 hPa 0,0 l/m 0,0 km/h (0 Bft) N 360 0 min 0,000 mm 58 W/m -2,6 C -0,7 C 1,6 km/h (1 Bft) 98 %
08.03.2014 08:10 -0,6 C -0,8 C -0,6 C 87 % 1032,5 hPa 0,0 l/m 0,0 km/h (0 Bft) N 360 0 min 0,000 mm 98 W/m -2,5 C -0,6 C 1,6 km/h (1 Bft) 97 %
08.03.2014 08:20 -0,2 C -0,6 C -0,2 C 87 % 1032,6 hPa 0,0 l/m 0,0 km/h (0 Bft) N 360 0 min 0,000 mm 128 W/m -2,1 C -0,2 C 1,6 km/h (1 Bft) 98 %
08.03.2014 08:30 0,6 C -0,2 C 0,6 C 87 % 1032,7 hPa 0,0 l/m 0,0 km/h (0 Bft) N 0 0 min 0,000 mm 149 W/m -1,3 C 0,6 C 0,0 km/h (0 Bft) 87 %
08.03.2014 08:40 1,4 C 0,6 C 1,4 C 87 % 1032,7 hPa 0,0 l/m 0,0 km/h (0 Bft) N 0 10 min 0,000 mm 174 W/m -0,5 C 1,4 C 0,0 km/h (0 Bft) 98 %
08.03.2014 08:50 2,1 C 1,4 C 2,1 C 87 % 1032,7 hPa 0,0 l/m 0,0 km/h (0 Bft) N 360 10 min 0,000 mm 197 W/m 0,2 C 2,1 C 3,2 km/h (1 Bft) 97 %
08.03.2014 09:00 3,1 C 2,1 C 3,1 C 87 % 1032,7 hPa 0,0 l/m 0,0 km/h (0 Bft) N 360 10 min 0,051 mm 218 W/m 1,2 C 3,1 C 3,2 km/h (1 Bft) 98 %
08.03.2014 09:10 3,7 C 3,1 C 3,7 C 88 % 1032,9 hPa 0,0 l/m 0,0 km/h (0 Bft) N-NW 337 10 min 0,000 mm 241 W/m 1,9 C 3,7 C 1,6 km/h (1 Bft) 98 %
08.03.2014 09:20 4,4 C 3,7 C 4,4 C 87 % 1033,1 hPa 0,0 l/m 0,0 km/h (0 Bft) N-NW 337 10 min 0,000 mm 265 W/m 2,4 C 4,4 C 1,6 km/h (1 Bft) 97 %
08.03.2014 09:30 4,8 C 4,4 C 4,8 C 86 % 1033,2 hPa 0,0 l/m 0,0 km/h (0 Bft) N-NW 337 10 min 0,000 mm 288 W/m 2,7 C 4,8 C 3,2 km/h (1 Bft) 97 %
08.03.2014 09:40 5,5 C 4,8 C 5,5 C 86 % 1033,2 hPa 0,0 l/m 0,0 km/h (0 Bft) N-NO 22 10 min 0,000 mm 323 W/m 3,3 C 5,5 C 6,4 km/h (2 Bft) 97 %
08.03.2014 09:50 6,4 C 5,6 C 6,4 C 82 % 1033,2 hPa 0,0 l/m 1,6 km/h (1 Bft) NO 45 10 min 0,000 mm 346 W/m 3,6 C 6,4 C 8,0 km/h (2 Bft) 97 %
08.03.2014 10:00 7,3 C 6,4 C 7,3 C 79 % 1033,2 hPa 0,0 l/m 1,6 km/h (1 Bft) NO 45 10 min 0,127 mm 364 W/m 3,9 C 7,3 C 9,7 km/h (2 Bft) 98 %
08.03.2014 10:10 8,2 C 7,4 C 8,2 C 77 % 1033,2 hPa 0,0 l/m 0,0 km/h (0 Bft) NO 45 10 min 0,000 mm 396 W/m 4,4 C 8,2 C 4,8 km/h (1 Bft) 98 %
08.03.2014 10:20 8,8 C 8,2 C 8,8 C 74 % 1033,2 hPa 0,0 l/m 1,6 km/h (1 Bft) N-NO 22 10 min 0,000 mm 417 W/m 4,4 C 8,8 C 8,0 km/h (2 Bft) 98 %
08.03.2014 10:30 9,2 C 8,8 C 9,2 C 72 % 1033,2 hPa 0,0 l/m 1,6 km/h (1 Bft) NO 45 10 min 0,000 mm 438 W/m 4,4 C 9,2 C 8,0 km/h (2 Bft) 97 %
08.03.2014 10:40 9,6 C 9,2 C 9,6 C 71 % 1033,2 hPa 0,0 l/m 0,0 km/h (0 Bft) O-NO 67 10 min 0,000 mm 452 W/m 4,6 C 9,6 C 8,0 km/h (2 Bft) 98 %
08.03.2014 10:50 10,1 C 9,7 C 10,1 C 67 % 1033,2 hPa 0,0 l/m 1,6 km/h (1 Bft) NO 45 10 min 0,000 mm 466 W/m 4,3 C 10,1 C 9,7 km/h (2 Bft) 98 %
08.03.2014 11:00 10,6 C 10,1 C 10,6 C 66 % 1033,2 hPa 0,0 l/m 1,6 km/h (1 Bft) O 90 10 min 0,203 mm 485 W/m 4,5 C 10,6 C 9,7 km/h (2 Bft) 97 %
08.03.2014 11:10 11,2 C 10,6 C 11,2 C 66 % 1033,2 hPa 0,0 l/m 0,0 km/h (0 Bft) O-NO 67 10 min 0,000 mm 496 W/m 5,1 C 11,2 C 9,7 km/h (2 Bft) 98 %
08.03.2014 11:20 11,2 C 11,2 C 11,2 C 62 % 1033,0 hPa 0,0 l/m 6,4 km/h (2 Bft) O-SO 112 10 min 0,000 mm 504 W/m 4,2 C 11,2 C 16,1 km/h (3 Bft) 98 %
08.03.2014 11:30 11,4 C 11,2 C 11,4 C 64 % 1033,1 hPa 0,0 l/m 4,8 km/h (1 Bft) O-SO 112 10 min 0,000 mm 520 W/m 4,8 C 11,4 C 14,5 km/h (3 Bft) 98 %
08.03.2014 11:40 11,4 C 11,4 C 11,6 C 61 % 1032,8 hPa 0,0 l/m 6,4 km/h (2 Bft) O-SO 112 10 min 0,000 mm 524 W/m 4,2 C 11,4 C 20,9 km/h (4 Bft) 97 %
08.03.2014 11:50 11,7 C 11,4 C 11,7 C 63 % 1032,7 hPa 0,0 l/m 3,2 km/h (1 Bft) O-SO 112 10 min 0,000 mm 533 W/m 4,9 C 11,7 C 11,3 km/h (2 Bft) 98 %
08.03.2014 12:00 11,8 C 11,7 C 11,9 C 60 % 1032,7 hPa 0,0 l/m 8,0 km/h (2 Bft) SO 135 10 min 0,254 mm 538 W/m 4,3 C 10,7 C 17,7 km/h (3 Bft) 98 %
08.03.2014 12:10 12,2 C 11,8 C 12,2 C 60 % 1032,5 hPa 0,0 l/m 1,6 km/h (1 Bft) O-SO 112 10 min 0,000 mm 554 W/m 4,7 C 12,2 C 9,7 km/h (2 Bft) 89 %
08.03.2014 12:20 12,6 C 12,2 C 12,6 C 56 % 1032,5 hPa 0,0 l/m 6,4 km/h (2 Bft) O-SO 112 10 min 0,000 mm 566 W/m 4,1 C 12,6 C 20,9 km/h (4 Bft) 97 %
08.03.2014 12:40 12,7 C 12,2 C 12,7 C 56 % 1032,3 hPa 0,0 l/m 5,0 km/h (1 Bft) SO 132 20 min 0,000 mm 555 W/m 4,2 C 12,7 C 12,9 km/h (3 Bft) 100 %
08.03.2014 12:50 12,8 C 12,7 C 12,9 C 56 % 1032,3 hPa 0,0 l/m 7,1 km/h (2 Bft) O-SO 115 10 min 0,000 mm 550 W/m 4,2 C 12,4 C 19,3 km/h (3 Bft) 100 %
08.03.2014 13:00 13,2 C 12,8 C 13,2 C 54 % 1032,3 hPa 0,0 l/m 3,5 km/h (1 Bft) S 170 10 min 0,000 mm 563 W/m 4,1 C 13,2 C 11,3 km/h (2 Bft) 100 %
08.03.2014 13:10 13,6 C 13,2 C 13,6 C 52 % 1032,3 hPa 0,0 l/m 1,9 km/h (1 Bft) SO 126 10 min 0,305 mm 534 W/m 3,9 C 13,6 C 11,3 km/h (2 Bft) 100 %
08.03.2014 13:20 13,8 C 13,6 C 13,8 C 52 % 1032,2 hPa 0,0 l/m 1,7 km/h (1 Bft) O-NO 60 10 min 0,000 mm 545 W/m 4,1 C 13,8 C 11,3 km/h (2 Bft) 92 %
08.03.2014 13:30 14,1 C 13,8 C 14,1 C 51 % 1032,1 hPa 0,0 l/m 1,2 km/h (1 Bft) O 92 10 min 0,000 mm 504 W/m 4,1 C 14,1 C 9,7 km/h (2 Bft) 100 %
08.03.2014 13:40 14,1 C 14,0 C 14,1 C 49 % 1031,9 hPa 0,0 l/m 2,1 km/h (1 Bft) SO 126 10 min 0,000 mm 524 W/m 3,6 C 14,1 C 9,7 km/h (2 Bft) 100 %
08.03.2014 13:50 14,2 C 14,1 C 14,2 C 50 % 1031,9 hPa 0,0 l/m 0,6 km/h (0 Bft) N 355 10 min 0,000 mm 503 W/m 3,9 C 14,2 C 9,7 km/h (2 Bft) 100 %
08.03.2014 14:00 14,5 C 14,2 C 14,5 C 53 % 1031,7 hPa 0,0 l/m 1,6 km/h (1 Bft) O 98 10 min 0,279 mm 487 W/m 5,0 C 14,5 C 12,9 km/h (3 Bft) 100 %
08.03.2014 14:10 14,4 C 14,3 C 14,6 C 52 % 1031,7 hPa 0,0 l/m 2,4 km/h (1 Bft) N-NO 22 10 min 0,000 mm 489 W/m 4,7 C 14,4 C 17,7 km/h (3 Bft) 99 %
08.03.2014 14:20 14,6 C 14,4 C 14,7 C 50 % 1031,6 hPa 0,0 l/m 1,2 km/h (1 Bft) O 94 10 min 0,000 mm 452 W/m 4,3 C 14,6 C 14,5 km/h (3 Bft) 100 %
08.03.2014 14:30 14,5 C 14,5 C 14,6 C 50 % 1031,5 hPa 0,0 l/m 2,5 km/h (1 Bft) O-SO 112 10 min 0,000 mm 431 W/m 4,2 C 14,5 C 16,1 km/h (3 Bft) 100 %
08.03.2014 14:40 14,6 C 14,3 C 14,6 C 50 % 1031,5 hPa 0,0 l/m 0,6 km/h (0 Bft) SO 136 10 min 0,000 mm 431 W/m 4,3 C 14,6 C 11,3 km/h (2 Bft) 100 %
08.03.2014 14:50 15,1 C 14,6 C 15,1 C 48 % 1031,4 hPa 0,0 l/m 0,0 km/h (0 Bft) NO 49 10 min 0,000 mm 415 W/m 4,2 C 15,1 C 1,6 km/h (1 Bft) 100 %
08.03.2014 15:00 15,2 C 15,1 C 15,2 C 48 % 1031,4 hPa 0,0 l/m 0,2 km/h (0 Bft) N-NW 336 10 min 0,000 mm 404 W/m 4,3 C 15,2 C 6,4 km/h (2 Bft) 100 %
08.03.2014 15:10 15,1 C 15,1 C 15,3 C 47 % 1031,2 hPa 0,0 l/m 0,5 km/h (0 Bft) SO 146 10 min 0,229 mm 387 W/m 3,9 C 15,1 C 8,0 km/h (2 Bft) 100 %
08.03.2014 15:20 15,3 C 15,1 C 15,3 C 46 % 1031,2 hPa 0,0 l/m 0,1 km/h (0 Bft) NO 39 10 min 0,000 mm 357 W/m 3,8 C 15,3 C 3,2 km/h (1 Bft) 100 %
08.03.2014 15:30 15,3 C 15,3 C 15,4 C 45 % 1031,2 hPa 0,0 l/m 0,3 km/h (0 Bft) S 191 10 min 0,000 mm 346 W/m 3,4 C 15,3 C 3,2 km/h (1 Bft) 100 %
08.03.2014 15:40 15,2 C 15,2 C 15,3 C 45 % 1031,1 hPa 0,0 l/m 0,5 km/h (0 Bft) N-NO 21 10 min 0,000 mm 322 W/m 3,4 C 15,2 C 11,3 km/h (2 Bft) 100 %
08.03.2014 15:50 15,2 C 15,2 C 15,2 C 44 % 1031,1 hPa 0,0 l/m 0,2 km/h (0 Bft) N-NO 31 0 min 0,000 mm 102 W/m 3,0 C 15,2 C 8,0 km/h (2 Bft) 100 %
08.03.2014 16:00 15,1 C 15,1 C 15,3 C 45 % 1031,1 hPa 0,0 l/m 0,3 km/h (0 Bft) N-NO 32 0 min 0,152 mm 77 W/m 3,3 C 15,1 C 4,8 km/h (1 Bft) 100 %
08.03.2014 16:10 15,1 C 15,1 C 15,1 C 45 % 1031,0 hPa 0,0 l/m 0,6 km/h (0 Bft) NO 52 0 min 0,000 mm 74 W/m 3,3 C 15,1 C 8,0 km/h (2 Bft) 100 %
08.03.2014 16:20 15,1 C 15,1 C 15,1 C 44 % 1031,1 hPa 0,0 l/m 0,5 km/h (0 Bft) NO 36 0 min 0,000 mm 69 W/m 2,9 C 15,1 C 6,4 km/h (2 Bft) 100 %
08.03.2014 16:30 14,9 C 14,9 C 15,1 C 47 % 1030,8 hPa 0,0 l/m 0,4 km/h (0 Bft) NO 36 0 min 0,000 mm 65 W/m 3,7 C 14,9 C 6,4 km/h (2 Bft) 100 %
08.03.2014 16:40 14,7 C 14,7 C 14,9 C 47 % 1030,8 hPa 0,0 l/m 0,1 km/h (0 Bft) N-NO 22 0 min 0,000 mm 58 W/m 3,5 C 14,7 C 3,2 km/h (1 Bft) 100 %
08.03.2014 16:50 14,5 C 14,5 C 14,7 C 46 % 1030,8 hPa 0,0 l/m 0,0 km/h (0 Bft) O-SO 104 0 min 0,000 mm 53 W/m 3,0 C 14,5 C 1,6 km/h (1 Bft) 100 %
08.03.2014 17:00 14,4 C 14,4 C 14,5 C 45 % 1030,8 hPa 0,0 l/m 0,0 km/h (0 Bft) O-NO 60 0 min 0,051 mm 49 W/m 2,6 C 14,4 C 1,6 km/h (1 Bft) 100 %
08.03.2014 17:10 14,3 C 14,3 C 14,4 C 46 % 1030,7 hPa 0,0 l/m 0,4 km/h (0 Bft) O-NO 65 0 min 0,000 mm 42 W/m 2,8 C 14,3 C 6,4 km/h (2 Bft) 100 %
08.03.2014 17:20 14,1 C 14,1 C 14,3 C 46 % 1030,8 hPa 0,0 l/m 0,0 km/h (0 Bft) NO 46 0 min 0,000 mm 39 W/m 2,7 C 14,1 C 1,6 km/h (1 Bft) 100 %
08.03.2014 17:30 13,9 C 13,9 C 14,1 C 47 % 1030,8 hPa 0,0 l/m 0,3 km/h (0 Bft) O 91 0 min 0,000 mm 33 W/m 2,8 C 13,9 C 8,0 km/h (2 Bft) 100 %
08.03.2014 17:40 13,8 C 13,8 C 14,0 C 46 % 1030,8 hPa 0,0 l/m 0,6 km/h (0 Bft) O-SO 117 0 min 0,000 mm 26 W/m 2,4 C 13,8 C 9,7 km/h (2 Bft) 99 %
08.03.2014 17:50 13,5 C 13,5 C 13,8 C 47 % 1030,7 hPa 0,0 l/m 0,0 km/h (0 Bft) O 84 0 min 0,000 mm 19 W/m 2,4 C 13,5 C 1,6 km/h (1 Bft) 100 %
08.03.2014 18:00 13,2 C 13,2 C 13,5 C 47 % 1030,7 hPa 0,0 l/m 0,1 km/h (0 Bft) O-NO 66 0 min 0,025 mm 9 W/m 2,1 C 13,2 C 3,2 km/h (1 Bft) 100 %
08.03.2014 18:10 12,8 C 12,8 C 13,2 C 49 % 1030,8 hPa 0,0 l/m 0,2 km/h (0 Bft) O 98 0 min 0,000 mm 5 W/m 2,4 C 12,8 C 3,2 km/h (1 Bft) 100 %
08.03.2014 18:20 12,4 C 12,4 C 12,8 C 50 % 1030,9 hPa 0,0 l/m 0,4 km/h (0 Bft) NO 47 0 min 0,000 mm 0 W/m 2,3 C 12,4 C 3,2 km/h (1 Bft) 100 %
08.03.2014 18:30 12,1 C 12,1 C 12,4 C 51 % 1030,9 hPa 0,0 l/m 0,1 km/h (0 Bft) O-NO 63 0 min 0,000 mm 0 W/m 2,3 C 12,1 C 3,2 km/h (1 Bft) 100 %
08.03.2014 18:40 11,7 C 11,7 C 12,1 C 52 % 1031,0 hPa 0,0 l/m 0,0 km/h (0 Bft) O-NO 63 0 min 0,000 mm 0 W/m 2,2 C 11,7 C 1,6 km/h (1 Bft) 100 %
08.03.2014 18:50 11,4 C 11,4 C 11,7 C 53 % 1031,0 hPa 0,0 l/m 0,6 km/h (0 Bft) O-NO 78 0 min 0,000 mm 0 W/m 2,2 C 11,4 C 4,8 km/h (1 Bft) 100 %
08.03.2014 19:00 11,2 C 11,2 C 11,5 C 54 % 1031,1 hPa 0,0 l/m 0,1 km/h (0 Bft) O-NO 59 0 min 0,000 mm 0 W/m 2,2 C 11,2 C 3,2 km/h (1 Bft) 100 %
08.03.2014 19:10 11,1 C 11,1 C 11,2 C 54 % 1031,1 hPa 0,0 l/m 0,0 km/h (0 Bft) O-NO 57 0 min 0,000 mm 0 W/m 2,2 C 11,1 C 1,6 km/h (1 Bft) 100 %
08.03.2014 19:20 10,9 C 10,9 C 11,1 C 55 % 1031,1 hPa 0,0 l/m 0,4 km/h (0 Bft) O 88 0 min 0,000 mm 0 W/m 2,2 C 10,9 C 4,8 km/h (1 Bft) 100 %
08.03.2014 19:30 10,7 C 10,7 C 10,9 C 55 % 1031,1 hPa 0,0 l/m 0,1 km/h (0 Bft) O-SO 121 0 min 0,000 mm 0 W/m 2,0 C 10,7 C 3,2 km/h (1 Bft) 100 %
08.03.2014 19:40 10,6 C 10,6 C 10,7 C 57 % 1031,1 hPa 0,0 l/m 0,3 km/h (0 Bft) O-SO 102 0 min 0,000 mm 0 W/m 2,4 C 10,6 C 4,8 km/h (1 Bft) 100 %
08.03.2014 19:50 10,4 C 10,4 C 10,6 C 58 % 1031,1 hPa 0,0 l/m 0,8 km/h (0 Bft) SO 132 0 min 0,000 mm 0 W/m 2,5 C 10,4 C 6,4 km/h (2 Bft) 100 %
08.03.2014 20:00 10,6 C 10,4 C 10,6 C 58 % 1031,1 hPa 0,0 l/m 0,8 km/h (0 Bft) O 86 0 min 0,026 mm 0 W/m 2,7 C 10,6 C 6,4 km/h (2 Bft) 100 %
08.03.2014 20:10 10,6 C 10,5 C 10,6 C 59 % 1031,1 hPa 0,0 l/m 0,6 km/h (0 Bft) O-NO 63 0 min 0,000 mm 0 W/m 2,9 C 10,6 C 6,4 km/h (2 Bft) 100 %
08.03.2014 20:20 10,5 C 10,5 C 10,6 C 59 % 1031,2 hPa 0,0 l/m 0,4 km/h (0 Bft) O-NO 67 0 min 0,000 mm 0 W/m 2,8 C 10,5 C 8,0 km/h (2 Bft) 100 %
08.03.2014 20:30 10,4 C 10,4 C 10,5 C 59 % 1031,2 hPa 0,0 l/m 0,7 km/h (0 Bft) N-NO 25 0 min 0,000 mm 0 W/m 2,7 C 10,4 C 8,0 km/h (2 Bft) 100 %
08.03.2014 20:40 10,3 C 10,3 C 10,4 C 60 % 1031,2 hPa 0,0 l/m 0,4 km/h (0 Bft) O-NO 77 0 min 0,000 mm 0 W/m 2,9 C 10,3 C 4,8 km/h (1 Bft) 100 %
08.03.2014 20:50 9,9 C 9,9 C 10,3 C 61 % 1031,2 hPa 0,0 l/m 0,4 km/h (0 Bft) N 355 0 min 0,000 mm 0 W/m 2,7 C 9,9 C 6,4 km/h (2 Bft) 100 %
08.03.2014 21:00 9,8 C 9,8 C 9,9 C 62 % 1031,2 hPa 0,0 l/m 0,5 km/h (0 Bft) O-NO 69 0 min 0,025 mm 0 W/m 2,9 C 9,8 C 4,8 km/h (1 Bft) 100 %
08.03.2014 21:10 9,6 C 9,6 C 9,8 C 63 % 1031,2 hPa 0,0 l/m 1,6 km/h (1 Bft) NO 45 0 min 0,000 mm 0 W/m 2,9 C 9,6 C 6,4 km/h (2 Bft) 100 %
08.03.2014 21:20 9,5 C 9,5 C 9,6 C 63 % 1031,1 hPa 0,0 l/m 0,0 km/h (0 Bft) O-SO 112 0 min 0,000 mm 0 W/m 2,8 C 9,5 C 8,0 km/h (2 Bft) 100 %
08.03.2014 21:30 9,2 C 9,2 C 9,4 C 63 % 1031,1 hPa 0,0 l/m 0,0 km/h (0 Bft) O-NO 67 0 min 0,000 mm 0 W/m 2,5 C 9,2 C 8,0 km/h (2 Bft) 91 %
08.03.2014 21:40 9,0 C 9,0 C 9,2 C 63 % 1031,1 hPa 0,0 l/m 1,6 km/h (1 Bft) O 90 0 min 0,000 mm 0 W/m 2,3 C 9,0 C 6,4 km/h (2 Bft) 100 %
08.03.2014 21:50 8,8 C 8,8 C 9,0 C 64 % 1031,1 hPa 0,0 l/m 0,0 km/h (0 Bft) NO 45 0 min 0,000 mm 0 W/m 2,4 C 8,8 C 8,0 km/h (2 Bft) 100 %
08.03.2014 22:00 8,8 C 8,7 C 8,8 C 64 % 1031,1 hPa 0,0 l/m 0,0 km/h (0 Bft) SO 135 0 min 0,025 mm 0 W/m 2,4 C 8,8 C 6,4 km/h (2 Bft) 100 %
08.03.2014 22:10 8,8 C 8,8 C 8,8 C 63 % 1031,2 hPa 0,0 l/m 0,0 km/h (0 Bft) O-SO 112 0 min 0,000 mm 0 W/m 2,2 C 8,8 C 8,0 km/h (2 Bft) 100 %
08.03.2014 22:20 8,7 C 8,7 C 8,8 C 63 % 1031,2 hPa 0,0 l/m 1,6 km/h (1 Bft) O 90 0 min 0,000 mm 0 W/m 2,1 C 8,7 C 8,0 km/h (2 Bft) 100 %
08.03.2014 22:30 8,6 C 8,6 C 8,7 C 63 % 1031,1 hPa 0,0 l/m 1,6 km/h (1 Bft) O 90 0 min 0,000 mm 0 W/m 2,0 C 8,6 C 6,4 km/h (2 Bft) 100 %
08.03.2014 22:40 8,7 C 8,6 C 8,7 C 62 % 1031,2 hPa 0,0 l/m 0,0 km/h (0 Bft) O-NO 67 0 min 0,000 mm 0 W/m 1,8 C 8,7 C 9,7 km/h (2 Bft) 100 %
08.03.2014 22:50 8,9 C 8,7 C 8,9 C 60 % 1031,2 hPa 0,0 l/m 1,6 km/h (1 Bft) O-NO 67 0 min 0,000 mm 0 W/m 1,6 C 8,9 C 14,5 km/h (3 Bft) 100 %
08.03.2014 23:00 8,9 C 8,9 C 9,0 C 60 % 1031,1 hPa 0,0 l/m 0,0 km/h (0 Bft) O-NO 67 0 min 0,025 mm 0 W/m 1,6 C 8,9 C 4,8 km/h (1 Bft) 100 %
08.03.2014 23:10 8,9 C 8,9 C 8,9 C 59 % 1031,2 hPa 0,0 l/m 1,6 km/h (1 Bft) SO 135 0 min 0,000 mm 0 W/m 1,3 C 8,9 C 6,4 km/h (2 Bft) 100 %
08.03.2014 23:20 8,7 C 8,7 C 8,9 C 60 % 1031,2 hPa 0,0 l/m 0,0 km/h (0 Bft) O-SO 112 0 min 0,000 mm 0 W/m 1,4 C 8,7 C 11,3 km/h (2 Bft) 99 %
08.03.2014 23:30 8,6 C 8,6 C 8,7 C 61 % 1031,1 hPa 0,0 l/m 0,0 km/h (0 Bft) O 90 0 min 0,000 mm 0 W/m 1,5 C 8,6 C 4,8 km/h (1 Bft) 100 %
08.03.2014 23:40 8,3 C 8,3 C 8,6 C 62 % 1031,1 hPa 0,0 l/m 0,0 km/h (0 Bft) SO 135 0 min 0,000 mm 0 W/m 1,5 C 8,3 C 6,4 km/h (2 Bft) 99 %
08.03.2014 23:50 8,1 C 8,1 C 8,3 C 62 % 1031,2 hPa 0,0 l/m 0,0 km/h (0 Bft) O-SO 112 0 min 0,000 mm 0 W/m 1,3 C 8,1 C 9,7 km/h (2 Bft) 100 %
_ Min-Zeit 07:10 07:10 07:10 15:50 00:00 - 00:00 - - - - - 07:00 07:00 00:00 08:30
Minimum _ -0,9 C -0,9 C -0,8 C 44 % 1027,9 hPa - 0,0 km/h (0 Bft) - - - - - -2,7 C -0,8 C 0,0 km/h (0 Bft) 87 %
_ Max-Zeit 15:30 15:30 15:30 04:30 09:30 00:00 12:00 - - 12:40 13:10 12:20 11:10 15:20 11:40 00:10
Maximum _ 15,4 C 15,3 C 15,4 C 88 % 1033,2 hPa 0,0 l/m 8,0 km/h
SO (2 Bft)
- - 20 min 0,305 mm 566 W/m 5,1 C 15,3 C 20,9 km/h
SO (4 Bft)
100 %
Durchschnitt _ 7,5 C 7,4 C 7,6 C 69 % 1031,1 hPa #0,0 l/m 0,7 km/h (0 Bft) O-SO - #7:10 h #1,777 mm 290 W/m 1,7 C 7,5 C 5,4 km/h (1 Bft) 99 %
PRIVATE WETTERSTATION BILLIGHEIM-ALLFELD - www.neckar-odenwald-wetter.de - Holger Sonntag